Capitol Logistics 2216


KSDF
Louisville International Airport-Standiford Field
Louisville, Kentucky, US
KRFD
Chicago/Rockford International Airport
Rockford, Illinois, US

Activity Log

Date Flight Route Aircraft Duration
01/29/2020 CPX2216 SHB BVT JOT B763 1h 10m
12/02/2019 CPX2216 SHB BVT JOT B763 1h 13m
11/28/2019 CPX2216 SHB BVT JOT B763 1h 07m
11/21/2019 CPX2216 SHB BVT JOT B763 1h 13m

Route Details

Aircraft Information
Primary: Boeing 767-300BDSF
Backup: Boeing 757-200SF
Date Restrictions
Between:Nov 16, 2019
Dec 31, 2019
Route Data
Distance: 287nm
Sched. Duration: 0h 54m
Avg. Duration: 1h 11m (+57m)
Times Flown: 4
Recm'd Route: SHB BVT JOT
Planned Altitude: 30,000ft
Origin Wx: KSDF 231356Z 14006KT 10SM OVC085 03/M06 A3020 RMK AO2 SLP228 T00331061
Dest. Wx: KRFD 231354Z 21006KT 10SM CLR 03/M03 A2996 RMK AO2 SLP150 T00331033
Notes: SEASONAL FLIGHT | UPS SURGE OPS CONTRACT

Financial History
Total Freight: 241,896lbs
Average Load: 60,474lbs/flt
Fuel Used: 45,152lbs
Avg. Fuel Used: 11,288lbs/flt
Fuel Expense: $36,573
Avg. Fuel Expense: $9,143
Avg. Fuel Cost: $0.81/lbs
Total Gross Income: $355,587
Pilot Pay: $846
Total Expenses: $38,611
Total Revenue: $279,464
Average Revenue: $88,896.78